Time;durP1;ratioP1;P1;durP2;ratioP2;P2;SDS_P1;SDS_P2;PMS_P1;PMS_P2;Temp;Humidity;BMP_temperature;BMP_pressure;BME280_temperature;BME280_humidity;BME280_pressure;Samples;Min_cycle;Max_cycle;Signal;HPM_P1;HPM_P2
2021/10/21 00:00:57;;;;;;;7.20;6.23;;;12.90;99.90;;;;;;4971945;28;20233;-62
2021/10/21 00:03:24;;;;;;;9.70;6.47;;;12.90;99.90;;;;;;4973617;28;20186;-62
2021/10/21 00:05:49;;;;;;;7.80;5.80;;;12.90;99.90;;;;;;4971988;28;20265;-62
2021/10/21 00:08:16;;;;;;;9.30;6.20;;;12.90;99.90;;;;;;4971258;28;20523;-62
2021/10/21 00:10:45;;;;;;;11.47;6.13;;;12.90;99.90;;;;;;4959128;28;20224;-62
2021/10/21 00:13:11;;;;;;;7.70;6.43;;;12.90;99.90;;;;;;4992516;23;20794;-54
2021/10/21 00:15:37;;;;;;;10.47;5.97;;;12.90;99.90;;;;;;4951541;28;20422;-55
2021/10/21 00:18:03;;;;;;;8.20;6.03;;;12.90;99.90;;;;;;4953505;28;20434;-55
2021/10/21 00:20:31;;;;;;;10.63;6.57;;;12.90;99.90;;;;;;4954510;28;20414;-55
2021/10/21 00:22:56;;;;;;;8.30;6.60;;;12.90;99.90;;;;;;4963841;28;20438;-55
2021/10/21 00:25:22;;;;;;;8.83;6.07;;;12.90;99.90;;;;;;4952540;29;20481;-56
2021/10/21 00:27:48;;;;;;;7.87;5.90;;;12.90;99.90;;;;;;4952703;29;20175;-57
2021/10/21 00:30:13;;;;;;;8.10;6.30;;;12.90;99.90;;;;;;4949772;28;20217;-57
2021/10/21 00:32:39;;;;;;;12.13;6.60;;;12.90;99.90;;;;;;4949895;29;20198;-56
2021/10/21 00:35:05;;;;;;;8.83;6.33;;;12.80;99.90;;;;;;4947150;28;20634;-56
2021/10/21 00:37:31;;;;;;;7.67;6.40;;;12.80;99.90;;;;;;4951381;29;20505;-55
2021/10/21 00:39:57;;;;;;;10.63;6.03;;;12.80;99.90;;;;;;4951324;28;20994;-56
2021/10/21 00:42:22;;;;;;;18.40;7.30;;;12.80;99.90;;;;;;4951771;28;20250;-56
2021/10/21 00:44:48;;;;;;;9.60;7.30;;;12.80;99.90;;;;;;4951840;29;20191;-55
2021/10/21 00:47:14;;;;;;;8.93;6.87;;;12.80;99.90;;;;;;4950218;29;20214;-56
2021/10/21 00:49:40;;;;;;;8.47;6.13;;;12.80;99.90;;;;;;4950420;28;20191;-55
2021/10/21 00:52:06;;;;;;;7.90;6.60;;;12.80;99.90;;;;;;4943619;29;20449;-58
2021/10/21 00:54:33;;;;;;;8.40;6.57;;;12.70;99.90;;;;;;4952597;29;20190;-56
2021/10/21 00:56:59;;;;;;;9.53;7.10;;;12.70;99.90;;;;;;4951448;28;20438;-56
2021/10/21 00:59:26;;;;;;;10.33;6.93;;;12.70;99.90;;;;;;4951666;29;20422;-56
2021/10/21 01:01:52;;;;;;;9.80;7.17;;;12.70;99.90;;;;;;4951790;28;20182;-57
2021/10/21 01:04:18;;;;;;;11.07;6.63;;;12.70;99.90;;;;;;4952167;28;20440;-57
2021/10/21 01:06:43;;;;;;;9.40;6.43;;;12.70;99.90;;;;;;4948801;28;20183;-56
2021/10/21 01:09:10;;;;;;;11.93;7.00;;;12.60;99.90;;;;;;4944582;29;20241;-55
2021/10/21 01:11:35;;;;;;;11.07;7.60;;;12.60;99.90;;;;;;4945760;29;20167;-56
2021/10/21 01:14:01;;;;;;;11.37;8.03;;;12.60;99.90;;;;;;4950977;28;20473;-56
2021/10/21 01:16:27;;;;;;;12.27;7.80;;;12.60;99.90;;;;;;4950511;29;20237;-56
2021/10/21 01:18:53;;;;;;;11.80;7.27;;;12.60;99.90;;;;;;4950990;28;20186;-57
2021/10/21 01:21:18;;;;;;;13.13;7.80;;;12.50;99.90;;;;;;4955470;28;20739;-54
2021/10/21 01:23:44;;;;;;;15.30;8.27;;;12.50;99.90;;;;;;4946682;28;20205;-56
2021/10/21 01:26:12;;;;;;;13.70;8.50;;;12.50;99.90;;;;;;4948636;28;20182;-56
2021/10/21 01:28:38;;;;;;;10.70;8.10;;;12.50;99.90;;;;;;4943079;28;20264;-58
2021/10/21 01:31:05;;;;;;;11.70;7.67;;;12.50;99.90;;;;;;4948155;28;20458;-55
2021/10/21 01:33:32;;;;;;;12.23;7.90;;;12.50;99.90;;;;;;4948884;28;20454;-56
2021/10/21 01:35:58;;;;;;;12.33;7.17;;;12.50;99.90;;;;;;4948333;28;20926;-55
2021/10/21 01:38:24;;;;;;;11.60;7.30;;;12.50;99.90;;;;;;4959471;28;20923;-58
2021/10/21 01:40:49;;;;;;;8.60;7.70;;;12.50;99.90;;;;;;4953874;28;20174;-58
2021/10/21 01:43:15;;;;;;;11.67;7.60;;;12.50;99.90;;;;;;4952152;28;20638;-56
2021/10/21 01:45:41;;;;;;;14.70;8.73;;;12.50;99.90;;;;;;4961192;28;20241;-56
2021/10/21 01:48:07;;;;;;;10.50;7.20;;;12.50;99.90;;;;;;4950802;28;20547;-55
2021/10/21 01:50:34;;;;;;;11.23;7.27;;;12.50;99.90;;;;;;4949166;28;20970;-56
2021/10/21 01:52:59;;;;;;;12.30;6.80;;;12.50;99.90;;;;;;4950478;28;20457;-56
2021/10/21 01:55:25;;;;;;;11.03;6.87;;;12.40;99.90;;;;;;4950500;28;20434;-55
2021/10/21 01:57:52;;;;;;;8.20;6.87;;;12.40;99.90;;;;;;4946863;29;20191;-55
2021/10/21 02:00:20;;;;;;;10.07;7.20;;;12.50;99.90;;;;;;4946730;29;20223;-54
2021/10/21 02:02:47;;;;;;;9.30;7.07;;;12.50;99.90;;;;;;4951393;28;20434;-55
2021/10/21 02:05:15;;;;;;;14.13;7.50;;;12.50;99.90;;;;;;4949599;28;20456;-57
2021/10/21 02:07:41;;;;;;;11.73;7.00;;;12.50;99.90;;;;;;4951341;28;20437;-54
2021/10/21 02:10:16;;;;;;;8.90;7.40;;;12.50;99.90;;;;;;4950108;28;20479;-56
2021/10/21 02:12:42;;;;;;;9.83;7.27;;;12.40;99.90;;;;;;4950784;28;20553;-54
2021/10/21 02:15:08;;;;;;;8.63;7.03;;;12.40;99.90;;;;;;4950024;28;20794;-54
2021/10/21 02:17:34;;;;;;;8.60;7.17;;;12.40;99.90;;;;;;4949504;28;20440;-54
2021/10/21 02:19:59;;;;;;;13.00;7.60;;;12.40;99.90;;;;;;4951107;29;20426;-55
2021/10/21 02:22:25;;;;;;;12.30;7.70;;;12.40;99.90;;;;;;4950749;28;20558;-59
2021/10/21 02:24:51;;;;;;;9.30;6.63;;;12.40;99.90;;;;;;4950269;28;20269;-55
2021/10/21 02:27:17;;;;;;;16.17;8.23;;;12.40;99.90;;;;;;4950229;28;20186;-56
2021/10/21 02:29:43;;;;;;;8.83;7.10;;;12.40;99.90;;;;;;4941109;29;20521;-56
2021/10/21 02:32:08;;;;;;;11.27;7.20;;;12.40;99.90;;;;;;4949394;28;20197;-55
2021/10/21 02:34:34;;;;;;;11.70;8.13;;;12.40;99.90;;;;;;4947919;29;20635;-55
2021/10/21 02:37:00;;;;;;;11.70;7.20;;;12.40;99.90;;;;;;4946107;29;20313;-58
2021/10/21 02:39:26;;;;;;;9.40;7.30;;;12.40;99.90;;;;;;4938279;29;20686;-56
2021/10/21 02:41:51;;;;;;;8.40;6.60;;;12.40;99.90;;;;;;4950264;29;20613;-57
2021/10/21 02:44:17;;;;;;;15.47;7.10;;;12.40;99.90;;;;;;4949997;28;20194;-57
2021/10/21 02:46:43;;;;;;;9.40;7.30;;;12.40;99.90;;;;;;4941989;29;20174;-55
2021/10/21 02:49:08;;;;;;;10.83;7.30;;;12.40;99.90;;;;;;4948277;29;20258;-57
2021/10/21 02:51:34;;;;;;;15.10;7.67;;;12.40;99.90;;;;;;4945102;29;20202;-58
2021/10/21 02:54:00;;;;;;;14.73;8.07;;;12.40;99.90;;;;;;4950588;29;20703;-55
2021/10/21 02:56:26;;;;;;;10.50;6.83;;;12.40;99.90;;;;;;4950364;29;20612;-55
2021/10/21 02:58:51;;;;;;;9.70;6.60;;;12.50;99.90;;;;;;4949976;29;20205;-58
2021/10/21 03:01:17;;;;;;;9.63;6.57;;;12.50;99.90;;;;;;4949629;28;20233;-57
2021/10/21 03:03:42;;;;;;;9.37;6.80;;;12.50;99.90;;;;;;4950557;28;20194;-55
2021/10/21 03:06:08;;;;;;;13.00;6.10;;;12.50;99.90;;;;;;4949947;29;20277;-55
2021/10/21 03:08:34;;;;;;;7.17;6.30;;;12.50;99.90;;;;;;4949911;29;20675;-56
2021/10/21 03:11:00;;;;;;;7.00;5.80;;;12.50;99.90;;;;;;4949580;29;20315;-55
2021/10/21 03:13:25;;;;;;;6.80;5.60;;;12.50;99.90;;;;;;4949989;29;20489;-56
2021/10/21 03:15:51;;;;;;;5.50;4.87;;;12.60;99.90;;;;;;4950129;29;20584;-55
2021/10/21 03:18:17;;;;;;;7.57;5.27;;;12.60;99.90;;;;;;4950099;29;20190;-56
2021/10/21 03:20:42;;;;;;;6.73;4.30;;;12.60;99.90;;;;;;4949947;29;20651;-56
2021/10/21 03:23:08;;;;;;;6.17;4.60;;;12.60;99.90;;;;;;4951443;28;20202;-55
2021/10/21 03:25:34;;;;;;;4.30;3.83;;;12.70;99.90;;;;;;4945113;29;20206;-55
2021/10/21 03:27:59;;;;;;;5.13;4.33;;;12.70;99.90;;;;;;4949986;29;20213;-56
2021/10/21 03:30:25;;;;;;;5.37;3.63;;;12.70;99.90;;;;;;4950083;28;20269;-54
2021/10/21 03:32:51;;;;;;;4.60;3.27;;;12.80;99.90;;;;;;4948943;28;20210;-55
2021/10/21 03:35:17;;;;;;;2.97;2.70;;;12.80;99.90;;;;;;4950938;29;20284;-55
2021/10/21 03:37:43;;;;;;;3.10;2.50;;;12.90;99.90;;;;;;4951054;28;20473;-57
2021/10/21 03:40:11;;;;;;;3.30;2.13;;;12.90;99.90;;;;;;4948269;29;20194;-57
2021/10/21 03:42:37;;;;;;;4.80;2.10;;;13.00;99.90;;;;;;4938699;28;20457;-55
2021/10/21 03:45:04;;;;;;;1.60;1.50;;;13.00;99.90;;;;;;4954938;28;20436;-55
2021/10/21 03:47:30;;;;;;;5.83;1.47;;;13.10;99.90;;;;;;4956489;28;20489;-57
2021/10/21 03:49:55;;;;;;;5.30;1.70;;;13.10;99.90;;;;;;4955656;28;20879;-57
2021/10/21 03:52:21;;;;;;;1.63;1.20;;;13.10;99.90;;;;;;4955087;28;20181;-56
2021/10/21 03:54:49;;;;;;;1.70;1.13;;;13.10;99.90;;;;;;4957383;28;20179;-57
2021/10/21 03:57:15;;;;;;;2.97;1.07;;;13.00;99.90;;;;;;4948055;28;20587;-57
2021/10/21 03:59:41;;;;;;;4.20;0.93;;;12.80;99.90;;;;;;4943924;28;20461;-57
2021/10/21 04:02:07;;;;;;;5.33;1.00;;;12.60;99.90;;;;;;4945283;28;20442;-55
2021/10/21 04:04:32;;;;;;;2.40;1.07;;;12.40;99.90;;;;;;4947552;28;20214;-55
2021/10/21 04:06:58;;;;;;;1.80;0.90;;;12.20;99.90;;;;;;4946746;28;20442;-56
2021/10/21 04:09:24;;;;;;;1.07;1.00;;;12.00;99.90;;;;;;4947373;28;20202;-56
2021/10/21 04:11:50;;;;;;;1.20;0.97;;;11.90;99.90;;;;;;4970735;28;20182;-57
2021/10/21 04:14:16;;;;;;;1.03;0.93;;;11.80;99.90;;;;;;4950316;28;20479;-55
2021/10/21 04:16:41;;;;;;;4.37;1.23;;;11.70;99.90;;;;;;4951719;28;20218;-59
2021/10/21 04:19:07;;;;;;;1.23;1.10;;;11.70;99.90;;;;;;4950224;28;20187;-56
2021/10/21 04:21:32;;;;;;;6.20;1.10;;;11.60;99.90;;;;;;4951829;28;20185;-56
2021/10/21 04:23:58;;;;;;;1.60;1.03;;;11.60;99.90;;;;;;4950380;28;20213;-60
2021/10/21 04:26:24;;;;;;;1.37;1.10;;;11.60;99.90;;;;;;4956773;28;20826;-58
2021/10/21 04:28:49;;;;;;;1.23;1.13;;;11.60;99.90;;;;;;4951566;28;21136;-58
2021/10/21 04:31:16;;;;;;;1.23;1.00;;;11.60;99.20;;;;;;4951647;29;20215;-59
2021/10/21 04:33:41;;;;;;;2.30;1.27;;;11.60;99.80;;;;;;4947849;28;20637;-59
2021/10/21 04:36:07;;;;;;;1.63;1.23;;;11.50;99.10;;;;;;4952894;29;20984;-56
2021/10/21 04:38:33;;;;;;;3.33;1.10;;;11.50;99.90;;;;;;4947925;29;20182;-56
2021/10/21 04:40:59;;;;;;;4.37;1.17;;;11.40;99.90;;;;;;4949688;28;20261;-57
2021/10/21 04:43:24;;;;;;;5.40;1.73;;;11.30;99.60;;;;;;4950401;28;20457;-57
2021/10/21 04:45:51;;;;;;;2.40;1.17;;;11.30;99.20;;;;;;4950323;29;20559;-56
2021/10/21 04:48:17;;;;;;;2.90;1.27;;;11.20;99.90;;;;;;4947515;29;20658;-59
2021/10/21 04:50:43;;;;;;;3.83;1.27;;;11.20;99.70;;;;;;4949250;29;20474;-57
2021/10/21 04:53:09;;;;;;;2.90;1.40;;;11.20;99.50;;;;;;4952349;28;20253;-55
2021/10/21 04:55:35;;;;;;;4.93;1.30;;;11.20;99.90;;;;;;4949909;28;20517;-55
2021/10/21 04:58:04;;;;;;;3.97;1.60;;;11.20;99.90;;;;;;4952630;29;20414;-57
2021/10/21 05:00:30;;;;;;;7.30;1.83;;;11.10;99.90;;;;;;4951087;28;20442;-57
2021/10/21 05:02:56;;;;;;;5.43;1.77;;;11.10;99.90;;;;;;4952294;28;21057;-55
2021/10/21 05:05:22;;;;;;;4.77;1.10;;;11.00;99.90;;;;;;4951647;29;20604;-57
2021/10/21 05:07:48;;;;;;;1.73;1.40;;;11.00;99.90;;;;;;4939438;29;20438;-58
2021/10/21 05:10:14;;;;;;;6.60;1.10;;;11.00;99.90;;;;;;4952034;29;20462;-56
2021/10/21 05:12:40;;;;;;;7.83;2.20;;;11.00;99.90;;;;;;4951771;28;20213;-54
2021/10/21 05:15:07;;;;;;;11.73;3.20;;;11.00;99.90;;;;;;4951524;28;20458;-55
2021/10/21 05:17:33;;;;;;;3.90;1.33;;;11.00;99.90;;;;;;4952454;29;20175;-56
2021/10/21 05:19:59;;;;;;;7.67;1.40;;;11.00;99.90;;;;;;4952863;29;20429;-58
2021/10/21 05:22:25;;;;;;;4.63;1.67;;;11.00;99.90;;;;;;4951157;28;20651;-56
2021/10/21 05:24:50;;;;;;;5.43;1.50;;;11.00;99.90;;;;;;4943311;28;20718;-57
2021/10/21 05:27:16;;;;;;;4.23;1.50;;;11.10;99.90;;;;;;4951053;29;20194;-55
2021/10/21 05:29:42;;;;;;;4.90;2.07;;;11.00;99.90;;;;;;4954267;29;20326;-55
2021/10/21 05:32:07;;;;;;;3.37;1.77;;;11.00;99.90;;;;;;4953018;29;20643;-58
2021/10/21 05:34:38;;;;;;;5.13;1.67;;;11.00;98.90;;;;;;4953445;28;20577;-56
2021/10/21 05:37:06;;;;;;;12.37;2.20;;;11.00;99.60;;;;;;4951674;29;20186;-56
2021/10/21 05:39:33;;;;;;;11.60;1.93;;;11.00;98.90;;;;;;4952248;29;20438;-56
2021/10/21 05:41:59;;;;;;;13.47;1.93;;;11.00;98.20;;;;;;4949414;29;20430;-57
2021/10/21 05:44:25;;;;;;;8.17;1.70;;;10.90;99.10;;;;;;4948780;28;20442;-57
2021/10/21 05:46:52;;;;;;;10.60;2.00;;;10.90;98.00;;;;;;4949984;28;20508;-55
2021/10/21 05:49:18;;;;;;;6.60;1.50;;;10.90;99.00;;;;;;4951611;28;20418;-58
2021/10/21 05:51:44;;;;;;;9.03;1.70;;;10.80;99.00;;;;;;4952065;28;20427;-58
2021/10/21 05:54:10;;;;;;;11.10;1.63;;;10.80;99.00;;;;;;4950471;28;20484;-59
2021/10/21 05:56:36;;;;;;;2.90;1.40;;;10.80;98.60;;;;;;4950500;29;20422;-57
2021/10/21 05:59:01;;;;;;;7.57;1.80;;;10.80;97.10;;;;;;4950153;28;20226;-54
2021/10/21 06:01:27;;;;;;;17.33;2.00;;;10.80;96.50;;;;;;4950496;29;20667;-56
2021/10/21 06:03:53;;;;;;;7.80;2.03;;;10.80;96.70;;;;;;4951611;29;20399;-57
2021/10/21 06:06:19;;;;;;;11.00;1.97;;;10.80;95.40;;;;;;4951914;29;20178;-57
2021/10/21 06:08:45;;;;;;;5.33;1.90;;;10.80;95.90;;;;;;4950362;29;20237;-56
2021/10/21 06:11:11;;;;;;;2.20;1.37;;;10.80;95.00;;;;;;4950518;29;20194;-58
2021/10/21 06:13:38;;;;;;;10.70;1.93;;;10.80;93.20;;;;;;4987299;23;20636;-64
2021/10/21 06:16:04;;;;;;;12.60;3.10;;;10.80;95.00;;;;;;4958657;28;20427;-63
2021/10/21 06:18:30;;;;;;;10.90;2.10;;;10.80;93.90;;;;;;4960601;28;20487;-62
2021/10/21 06:20:56;;;;;;;5.23;1.33;;;10.80;92.90;;;;;;4965831;28;20426;-63
2021/10/21 06:23:24;;;;;;;13.53;1.80;;;10.90;93.60;;;;;;4967329;28;20460;-62
2021/10/21 06:25:49;;;;;;;10.50;2.20;;;10.90;93.00;;;;;;4960592;28;20165;-64
2021/10/21 06:28:15;;;;;;;2.67;1.53;;;10.90;92.40;;;;;;4959150;28;20471;-61
2021/10/21 06:30:41;;;;;;;9.93;1.93;;;11.00;91.90;;;;;;4961122;28;20321;-63
2021/10/21 06:33:08;;;;;;;7.30;1.57;;;11.00;93.00;;;;;;4978536;28;20205;-64
2021/10/21 06:35:34;;;;;;;4.20;1.43;;;11.10;91.10;;;;;;4966034;28;20178;-64
2021/10/21 06:38:00;;;;;;;6.83;1.67;;;11.10;90.20;;;;;;4968603;28;20418;-63
2021/10/21 06:40:26;;;;;;;9.03;1.70;;;11.20;91.10;;;;;;4969975;28;20451;-63
2021/10/21 06:42:52;;;;;;;6.40;1.87;;;11.20;91.90;;;;;;4970935;28;20552;-63
2021/10/21 06:45:18;;;;;;;10.80;1.67;;;11.20;90.90;;;;;;4952621;28;21001;-62
2021/10/21 06:47:43;;;;;;;8.70;1.70;;;11.20;91.60;;;;;;4953556;28;20302;-64
2021/10/21 06:50:11;;;;;;;16.40;2.20;;;11.20;89.50;;;;;;4966299;28;20268;-63
2021/10/21 06:52:38;;;;;;;6.00;1.50;;;11.20;90.80;;;;;;4954636;28;20191;-63
2021/10/21 06:55:04;;;;;;;4.33;1.20;;;11.20;90.20;;;;;;4959346;28;20440;-64
2021/10/21 06:57:30;;;;;;;8.27;1.80;;;11.20;90.70;;;;;;4961852;28;20436;-62
2021/10/21 06:59:56;;;;;;;13.43;2.17;;;11.20;90.10;;;;;;4964316;28;20942;-63
2021/10/21 07:02:22;;;;;;;7.87;1.90;;;11.20;88.20;;;;;;4969572;28;20177;-63
2021/10/21 07:04:48;;;;;;;4.10;1.50;;;11.10;90.30;;;;;;4968101;28;20740;-63
2021/10/21 07:07:14;;;;;;;16.37;2.00;;;11.20;88.10;;;;;;4969199;28;20880;-62
2021/10/21 07:09:39;;;;;;;11.93;1.80;;;11.20;88.30;;;;;;4963515;28;20753;-64
2021/10/21 07:12:05;;;;;;;5.73;1.53;;;11.20;83.80;;;;;;4968972;28;20166;-64
2021/10/21 07:14:31;;;;;;;9.97;2.00;;;11.20;84.10;;;;;;4984743;28;20232;-63
2021/10/21 07:16:57;;;;;;;6.63;1.50;;;11.20;80.60;;;;;;4965301;28;20241;-62
2021/10/21 07:19:22;;;;;;;4.73;1.80;;;11.30;78.60;;;;;;4968095;28;20257;-64
2021/10/21 07:21:48;;;;;;;11.07;1.63;;;11.30;79.10;;;;;;4969177;28;20684;-63
2021/10/21 07:24:14;;;;;;;4.70;1.40;;;11.30;80.30;;;;;;4967406;28;20206;-65
2021/10/21 07:26:41;;;;;;;9.10;2.30;;;11.40;81.10;;;;;;4964996;28;20174;-63
2021/10/21 07:29:07;;;;;;;6.30;1.50;;;11.40;77.60;;;;;;4955158;28;20710;-63
2021/10/21 07:31:33;;;;;;;4.47;1.60;;;11.50;73.60;;;;;;4959666;28;20484;-63
2021/10/21 07:33:59;;;;;;;5.27;1.77;;;11.50;74.70;;;;;;4973153;28;20676;-63
2021/10/21 07:36:24;;;;;;;7.20;1.73;;;11.50;75.50;;;;;;4969113;28;20179;-63
2021/10/21 07:38:50;;;;;;;2.67;1.60;;;11.50;73.80;;;;;;4968290;28;20204;-63
2021/10/21 07:41:18;;;;;;;4.40;1.60;;;11.60;76.50;;;;;;4964513;28;20261;-63
2021/10/21 07:43:43;;;;;;;5.53;2.13;;;11.70;72.20;;;;;;4974331;28;20433;-63
2021/10/21 07:46:09;;;;;;;7.50;1.70;;;11.80;70.10;;;;;;4968925;28;20444;-63
2021/10/21 07:48:35;;;;;;;13.57;2.73;;;11.90;69.30;;;;;;4977605;28;20186;-65
2021/10/21 07:51:02;;;;;;;4.97;1.27;;;11.90;71.10;;;;;;4994646;28;20552;-61
2021/10/21 07:53:28;;;;;;;10.70;2.70;;;12.00;70.30;;;;;;4977050;28;20460;-63
2021/10/21 07:55:54;;;;;;;7.50;2.00;;;12.00;69.70;;;;;;4972605;28;20938;-62
2021/10/21 07:58:20;;;;;;;3.13;1.23;;;12.10;69.80;;;;;;4971625;28;20456;-62
2021/10/21 08:00:46;;;;;;;8.40;1.53;;;12.10;69.10;;;;;;4965057;28;20590;-62
2021/10/21 08:03:11;;;;;;;4.53;1.20;;;12.20;66.10;;;;;;4953472;29;20191;-63
2021/10/21 08:05:37;;;;;;;8.87;1.67;;;12.30;63.40;;;;;;4962705;28;20174;-62
2021/10/21 08:08:04;;;;;;;4.33;1.73;;;12.40;62.70;;;;;;4954680;29;20181;-62
2021/10/21 08:10:31;;;;;;;5.20;1.30;;;12.40;60.90;;;;;;4968444;28;20688;-62
2021/10/21 08:12:57;;;;;;;4.03;1.30;;;12.50;59.90;;;;;;4971352;28;20449;-62
2021/10/21 08:15:23;;;;;;;7.23;1.70;;;12.50;59.20;;;;;;4968923;28;20519;-63
2021/10/21 08:17:50;;;;;;;8.27;1.50;;;12.50;59.30;;;;;;4970231;28;20452;-62
2021/10/21 08:20:17;;;;;;;2.57;1.50;;;12.40;59.40;;;;;;4966520;28;20439;-62
2021/10/21 08:22:47;;;;;;;7.50;1.67;;;12.50;58.60;;;;;;4973964;28;20402;-62
2021/10/21 08:25:15;;;;;;;4.37;1.50;;;12.40;60.90;;;;;;4969271;28;20436;-62
2021/10/21 08:27:44;;;;;;;3.60;1.43;;;12.50;58.40;;;;;;4965223;28;20401;-62
2021/10/21 08:30:12;;;;;;;4.40;1.17;;;12.60;58.60;;;;;;4986925;28;20543;-61
2021/10/21 08:32:38;;;;;;;5.90;1.50;;;12.60;59.60;;;;;;4971953;28;20472;-62
2021/10/21 08:35:07;;;;;;;3.67;1.70;;;12.70;57.90;;;;;;4958948;28;20438;-61
2021/10/21 08:37:35;;;;;;;1.27;1.10;;;12.70;58.40;;;;;;4972240;28;20421;-62
2021/10/21 08:40:01;;;;;;;6.93;1.40;;;12.70;58.60;;;;;;4972092;28;20421;-62
2021/10/21 08:42:27;;;;;;;5.80;1.37;;;12.70;58.40;;;;;;4971598;28;21048;-61
2021/10/21 08:44:53;;;;;;;5.17;1.40;;;12.70;57.80;;;;;;4967274;28;20450;-63
2021/10/21 08:47:20;;;;;;;2.43;1.40;;;12.70;57.50;;;;;;4970625;28;20213;-60
2021/10/21 08:49:47;;;;;;;2.77;1.10;;;12.70;57.50;;;;;;4972844;28;20568;-62
2021/10/21 08:52:16;;;;;;;3.53;1.60;;;12.80;57.90;;;;;;4966159;28;20431;-62
2021/10/21 08:54:42;;;;;;;4.00;1.40;;;12.80;58.30;;;;;;4961418;28;20453;-62
2021/10/21 08:57:15;;;;;;;2.13;1.20;;;12.90;57.70;;;;;;4965375;28;20941;-62
2021/10/21 08:59:41;;;;;;;6.30;1.50;;;12.80;58.30;;;;;;4972006;28;20425;-61
2021/10/21 09:02:16;;;;;;;5.20;1.37;;;12.80;58.90;;;;;;4969872;28;20437;-62
2021/10/21 09:10:10;;;;;;;3.90;1.10;;;12.70;56.50;;;;;;4956392;28;20443;-62
2021/10/21 09:12:54;;;;;;;7.43;1.50;;;12.80;57.20;;;;;;4970824;28;20429;-62
2021/10/21 09:15:23;;;;;;;1.53;0.90;;;12.90;58.30;;;;;;4951549;28;20441;-62
2021/10/21 09:17:50;;;;;;;4.00;1.30;;;13.00;56.60;;;;;;4951724;29;20826;-62
2021/10/21 09:20:27;;;;;;;4.30;1.33;;;13.10;57.00;;;;;;4963427;28;20794;-62
2021/10/21 09:23:01;;;;;;;3.53;1.87;;;13.20;56.10;;;;;;4975792;28;20952;-62
2021/10/21 09:25:29;;;;;;;6.57;1.00;;;13.30;57.10;;;;;;4963850;28;20990;-63
2021/10/21 09:27:58;;;;;;;3.87;1.07;;;13.50;56.80;;;;;;4955102;28;20512;-62
2021/10/21 09:30:30;;;;;;;1.50;1.23;;;13.60;56.70;;;;;;4960753;28;20740;-62
2021/10/21 09:33:07;;;;;;;6.90;1.53;;;13.70;56.80;;;;;;4978746;28;20501;-62
2021/10/21 09:35:38;;;;;;;5.43;1.23;;;13.70;55.10;;;;;;4960523;28;20509;-62
2021/10/21 09:38:04;;;;;;;2.63;1.37;;;13.70;54.50;;;;;;4965396;28;20569;-62
2021/10/21 09:40:34;;;;;;;3.07;1.07;;;13.70;54.40;;;;;;4961707;28;20421;-62
2021/10/21 09:43:05;;;;;;;1.90;1.20;;;13.70;55.00;;;;;;4964102;28;20433;-62
2021/10/21 09:45:37;;;;;;;2.80;1.10;;;13.80;55.70;;;;;;4967346;28;20430;-63
2021/10/21 09:48:04;;;;;;;2.97;1.27;;;13.90;55.00;;;;;;4961113;28;20512;-62
2021/10/21 09:50:39;;;;;;;1.27;1.00;;;14.00;54.60;;;;;;4952408;28;20517;-63
2021/10/21 09:53:31;;;;;;;18.20;1.60;;;14.10;52.50;;;;;;4950978;28;20449;-62
2021/10/21 09:56:00;;;;;;;2.40;1.03;;;14.10;52.70;;;;;;4963068;28;20430;-62
2021/10/21 09:58:39;;;;;;;3.33;1.47;;;14.00;52.50;;;;;;4963588;28;20566;-61
2021/10/21 10:01:07;;;;;;;3.83;1.60;;;14.00;51.90;;;;;;4967661;28;21024;-60
2021/10/21 10:03:34;;;;;;;2.40;1.20;;;14.00;52.70;;;;;;4966607;28;20449;-62
2021/10/21 10:05:59;;;;;;;2.70;1.33;;;14.00;53.40;;;;;;4951348;29;20418;-62
2021/10/21 10:08:27;;;;;;;1.63;1.00;;;14.10;51.70;;;;;;4951796;28;20437;-62
2021/10/21 10:11:00;;;;;;;2.60;1.27;;;14.20;49.80;;;;;;4966951;28;20194;-60
2021/10/21 10:13:27;;;;;;;2.57;1.10;;;14.10;49.50;;;;;;4971904;28;20466;-62
2021/10/21 10:15:54;;;;;;;3.63;1.40;;;14.10;49.90;;;;;;4968446;28;21085;-61
2021/10/21 10:18:28;;;;;;;2.13;1.03;;;14.10;50.10;;;;;;4969537;28;20460;-61
2021/10/21 10:21:31;;;;;;;3.20;1.10;;;14.20;50.20;;;;;;4965009;28;20438;-61
2021/10/21 10:24:02;;;;;;;5.27;1.20;;;14.40;50.70;;;;;;4956353;28;20445;-64
2021/10/21 10:26:54;;;;;;;3.53;1.40;;;14.50;50.10;;;;;;4953263;28;20512;-63
2021/10/21 10:29:32;;;;;;;3.30;1.73;;;14.60;49.00;;;;;;4964737;28;20438;-61
2021/10/21 10:32:00;;;;;;;1.67;1.13;;;14.50;48.90;;;;;;4965090;28;20424;-60
2021/10/21 10:34:35;;;;;;;5.20;1.67;;;14.60;49.90;;;;;;4965517;28;20777;-62
2021/10/21 10:37:12;;;;;;;1.30;1.10;;;14.60;47.70;;;;;;4961573;28;20983;-62
2021/10/21 10:39:59;;;;;;;5.73;1.50;;;14.70;47.00;;;;;;4961169;28;20425;-62
2021/10/21 10:42:31;;;;;;;1.80;1.10;;;14.70;47.80;;;;;;4961866;28;20429;-60
2021/10/21 10:44:57;;;;;;;3.00;1.60;;;14.70;46.90;;;;;;4966754;28;20450;-63
2021/10/21 10:47:40;;;;;;;5.87;1.20;;;14.80;46.00;;;;;;4955811;28;20426;-62
2021/10/21 10:50:08;;;;;;;2.67;1.20;;;14.70;45.30;;;;;;4975856;28;20450;-64
2021/10/21 10:52:50;;;;;;;3.07;1.23;;;14.60;46.20;;;;;;4954490;28;20955;-62
2021/10/21 10:55:47;;;;;;;2.70;1.17;;;14.80;46.30;;;;;;4970781;28;20454;-62
2021/10/21 10:58:25;;;;;;;4.53;1.27;;;15.10;45.00;;;;;;4971345;28;20864;-63
2021/10/21 11:00:56;;;;;;;0.97;0.80;;;15.40;44.10;;;;;;4963418;28;20993;-62
2021/10/21 11:03:36;;;;;;;2.30;1.50;;;15.60;44.10;;;;;;4973632;28;20464;-62
2021/10/21 11:06:04;;;;;;;4.13;1.00;;;16.00;43.40;;;;;;4962905;28;20437;-63
2021/10/21 11:09:03;;;;;;;3.60;0.90;;;16.50;41.80;;;;;;4980363;28;20467;-61
2021/10/21 11:11:41;;;;;;;1.30;1.20;;;17.10;42.90;;;;;;4956651;28;21241;-58
2021/10/21 11:14:28;;;;;;;2.00;0.80;;;17.60;40.70;;;;;;4952439;28;20501;-58
2021/10/21 11:16:55;;;;;;;1.00;0.90;;;18.00;40.10;;;;;;4957815;28;20464;-57
2021/10/21 11:19:55;;;;;;;1.97;1.13;;;18.20;38.60;;;;;;4971339;28;20513;-62
2021/10/21 11:22:21;;;;;;;1.10;0.80;;;18.50;38.00;;;;;;4941935;28;20941;-61
2021/10/21 11:24:51;;;;;;;2.33;0.80;;;18.70;37.70;;;;;;4955389;28;20441;-61
2021/10/21 11:27:19;;;;;;;2.57;1.00;;;19.00;39.00;;;;;;4953726;28;20190;-61
2021/10/21 11:29:49;;;;;;;1.87;1.10;;;18.80;38.50;;;;;;4958277;28;20543;-60
2021/10/21 11:32:16;;;;;;;1.10;0.90;;;18.80;38.00;;;;;;4956878;28;20437;-63
2021/10/21 11:34:42;;;;;;;1.63;0.90;;;19.00;38.00;;;;;;4958199;28;20545;-61
2021/10/21 11:37:08;;;;;;;3.30;0.90;;;19.00;37.30;;;;;;4966814;28;20441;-62
2021/10/21 11:39:36;;;;;;;2.00;0.97;;;18.90;38.20;;;;;;4964186;28;20969;-61
2021/10/21 11:42:03;;;;;;;4.10;1.10;;;18.90;37.60;;;;;;4955743;28;20190;-60
2021/10/21 11:44:29;;;;;;;3.07;1.10;;;18.50;38.10;;;;;;4963280;28;20497;-62
2021/10/21 11:46:59;;;;;;;1.90;1.03;;;18.50;39.30;;;;;;4967945;28;20421;-60
2021/10/21 11:49:26;;;;;;;3.97;1.10;;;18.80;39.00;;;;;;4953780;28;20635;-64
2021/10/21 11:52:12;;;;;;;1.10;0.73;;;19.00;38.10;;;;;;4968827;28;20425;-62
2021/10/21 11:54:39;;;;;;;4.63;1.20;;;19.30;38.60;;;;;;4952220;28;20796;-62
2021/10/21 11:57:06;;;;;;;6.23;1.30;;;19.70;37.30;;;;;;4962774;28;20716;-61
2021/10/21 11:59:39;;;;;;;3.30;1.30;;;20.00;36.50;;;;;;4957143;28;20441;-63
2021/10/21 12:02:12;;;;;;;2.40;1.13;;;20.50;36.70;;;;;;4956150;28;20468;-63
2021/10/21 12:04:39;;;;;;;1.20;0.80;;;20.70;36.60;;;;;;4958686;28;20460;-62
2021/10/21 12:07:06;;;;;;;3.70;1.30;;;21.30;36.00;;;;;;4957154;28;20434;-62
2021/10/21 12:09:34;;;;;;;3.37;1.60;;;21.70;33.50;;;;;;4954763;28;20487;-63
2021/10/21 12:12:01;;;;;;;4.00;1.60;;;21.80;33.50;;;;;;4960902;28;20437;-63
2021/10/21 12:14:27;;;;;;;8.53;1.90;;;22.10;34.20;;;;;;4965325;28;20472;-63
2021/10/21 12:16:53;;;;;;;4.10;1.40;;;22.40;34.30;;;;;;4964875;28;20844;-63
2021/10/21 12:19:21;;;;;;;4.73;1.73;;;22.70;32.80;;;;;;4958193;28;20490;-65
2021/10/21 12:21:46;;;;;;;2.13;1.00;;;22.90;32.00;;;;;;4966063;28;20193;-63
2021/10/21 12:24:26;;;;;;;4.03;1.33;;;22.10;32.20;;;;;;4956936;28;20224;-63
2021/10/21 12:26:53;;;;;;;5.23;1.53;;;21.50;33.20;;;;;;4958730;28;20185;-61
2021/10/21 12:29:19;;;;;;;2.77;1.20;;;21.00;34.10;;;;;;4962121;28;20434;-63
2021/10/21 12:31:47;;;;;;;5.10;1.20;;;20.20;34.80;;;;;;4962551;28;20472;-63
2021/10/21 12:34:28;;;;;;;3.57;1.20;;;19.10;36.40;;;;;;4970043;28;20216;-61
2021/10/21 12:36:55;;;;;;;2.80;1.20;;;17.90;38.30;;;;;;4963266;28;20420;-62
2021/10/21 12:39:32;;;;;;;4.23;1.17;;;16.90;39.90;;;;;;4958512;28;20520;-64
2021/10/21 12:42:06;;;;;;;3.87;1.30;;;17.30;41.40;;;;;;4954229;28;20426;-63
2021/10/21 12:44:32;;;;;;;4.20;1.30;;;18.20;40.90;;;;;;4967039;28;20449;-63
2021/10/21 12:47:09;;;;;;;3.17;1.37;;;18.70;38.70;;;;;;4958402;28;20433;-64
2021/10/21 12:49:36;;;;;;;2.77;1.10;;;18.50;38.80;;;;;;4963488;28;20182;-63
2021/10/21 12:52:10;;;;;;;3.53;1.10;;;18.00;39.80;;;;;;4960384;28;20792;-63
2021/10/21 12:54:38;;;;;;;4.00;1.20;;;17.30;41.10;;;;;;4960060;28;20436;-65